WetterOnline ( http://www.wetteronline.de )

Wetter aktuell PLZ Bereich 53547

Aktuelles Wetter: Roleber (162m)

6-stündlich | Neueste Meldungen
Ortszeit Temperatur Wetter
Di, 23.05. 8:00 17.5° C wolkenlos
Di, 23.05. 2:00 17.6° C bedeckt
Mo, 22.05. 20:00 21.1° C leicht bewölkt
Mo, 22.05. 14:00 21.7° C wolkig
Ortszeit Temperatur Wetter
Di, 23.05. 12:30 23.5° C wolkig
Di, 23.05. 12:00 22.3° C bewölkt
Di, 23.05. 11:30 22.8° C wolkig
Di, 23.05. 11:00 23.0° C wolkig
Di, 23.05. 10:30 22.0° C wolkig
Di, 23.05. 10:00 21.4° C leicht bewölkt
Ortszeit Relative Feuchte Sichtweite
Di, 23.05. 8:00 62% 22 km
Di, 23.05. 2:00 59% 35 km
Mo, 22.05. 20:00 47% 45 km
Mo, 22.05. 14:00 45% 35 km
Ortszeit Relative Feuchte Sichtweite
Di, 23.05. 12:30 47% 45 km
Di, 23.05. 12:00 49% 60 km
Di, 23.05. 11:30 45% 40 km
Di, 23.05. 11:00 46% 40 km
Di, 23.05. 10:30 52% 35 km
Di, 23.05. 10:00 58% 30 km
Ortszeit Niederschlagsmenge Niederschlagsart
Di, 23.05. 8:00 0,0 l/m2 in 12 Std. -
Di, 23.05. 2:00 0,0 l/m2 in 6 Std. -
Mo, 22.05. 20:00 0,0 l/m2 in 12 Std. -
Mo, 22.05. 14:00 0,0 l/m2 in 6 Std. -
Ortszeit Niederschlagsmenge Niederschlagsart
Di, 23.05. 12:30 keine Meldung -
Di, 23.05. 12:00 0,0 l/m2 in 1 Std. -
Di, 23.05. 11:30 keine Meldung -
Di, 23.05. 11:00 0,0 l/m2 in 1 Std. -
Di, 23.05. 10:30 keine Meldung -
Di, 23.05. 10:00 0,0 l/m2 in 1 Std. -
Ortszeit Stärke Spitze Richtung
km/h Bft. km/h Grad Sektor
Di, 23.05. 8:00 11 2 25 210° SW
Di, 23.05. 2:00 11 2 18 170° S
Mo, 22.05. 20:00 11 2 24 130° SO
Mo, 22.05. 14:00 13 3 26 110° O
Ortszeit Stärke Spitze Richtung
km/h Bft. km/h Grad Sektor
Di, 23.05. 12:30 11 2 22 290° W
Di, 23.05. 12:00 9 2 28 280° W
Di, 23.05. 11:30 11 2 25 250° W
Di, 23.05. 11:00 7 2 18 230° SW
Di, 23.05. 10:30 7 2 15 250° W
Di, 23.05. 10:00 7 2 18 210° SW
Ortszeit Untergrenze Bedeckung Gattung
total tief tief mittel hoch
Di, 23.05. 8:00 - 0/8 0/8 - - -
Di, 23.05. 2:00 4800 m 8/8 8/8 - - -
Mo, 22.05. 20:00 8100 m 8/8 0/8 - - -
Mo, 22.05. 14:00 1800 m 5/8 5/8 - - -
Ortszeit Bedeckungsgrad in Achtel und Wolkenuntergrenze
Di, 23.05. 12:30 2(1500m) 3(7800m) 7(9000m)
Di, 23.05. 12:00 6(1500m) 7(8100m)
Di, 23.05. 11:30 1(1500m) 7(8700m) 8(9000m)
Di, 23.05. 11:00 2(1440m) 7(9000m) 7(10500m)
Di, 23.05. 10:30 1(3600m) 8(9000m) 8(10500m)
Di, 23.05. 10:00 7(9000m) 8(10500m)
Ortszeit Luftdruck NN (hPa) Tendenz (hPa in 3 Std.)
Di, 23.05. 8:00 1017 + 0,7
Di, 23.05. 2:00 1016 - 0,5
Mo, 22.05. 20:00 1016 - 1,2
Mo, 22.05. 14:00 1018 - 1,5
Ortszeit Luftdruck NN (hPa) Tendenz (hPa in 3 Std.)
Di, 23.05. 12:30 1017 + 0,5
Di, 23.05. 12:00 1017 + 0,5
Di, 23.05. 11:30 1017 + 0,4
Di, 23.05. 11:00 1017 + 0,4
Di, 23.05. 10:30 1017 + 0,7
Di, 23.05. 10:00 1017 + 0,8
Ortszeit Schneehöhe (cm)
Di, 23.05. 8:00 -
Di, 23.05. 2:00 -
Mo, 22.05. 20:00 -
Mo, 22.05. 14:00 -
Ortszeit Schneehöhe (cm)
Di, 23.05. 12:30 -
Di, 23.05. 12:00 -
Di, 23.05. 11:30 -
Di, 23.05. 11:00 -
Di, 23.05. 10:30 -
Di, 23.05. 10:00 -
Link zu dieser Seite / Seite empfehlen

Das Wetter in ...